Oaks, NC

2:14 PM EDT on June 23, 2017 (GMT -0400)
Duchy Airpark | | Change Station

Elev 676 ft 35.98 °N, 79.27 °W | Updated 3 minutes ago

Partly Cloudy
Partly Cloudy
86.9 °F
Feels Like 98 °F
N
13.0
Wind Variable Wind from WSW
Gusts 18.0 mph

Today
High -- | Low -- °F
--% Chance of Precip.
Yesterday
High -- | Low -- °F
Precip. -- in
Pressure 29.92 in
Visibility 10.0 miles
Clouds Few 3600 ft
Heat Index 98 °F
Dew Point 77 °F
Humidity 72%
Rainfall 0.11 in
Snow Depth Not available.
6:01 AM 8:37 PM
Waning Crescent, 0% visible
METAR KIGX 231756Z AUTO 22007G17KT 130V280 10SM FEW036 31/22 A2994 RMK AO2 SLP132 60000 T03060222 10306 20233 57013
Pressure 29.92 in
Visibility 10.0 miles
Clouds Few 3600 ft
Heat Index 98 °F
Dew Point 77 °F
Humidity 72%
Rainfall 0.11 in
Snow Depth Not available.
6:01 AM 8:37 PM
Waning Crescent, 0% visible
METAR KIGX 231756Z AUTO 22007G17KT 130V280 10SM FEW036 31/22 A2994 RMK AO2 SLP132 60000 T03060222 10306 20233 57013

Get Severe Weather Alerts

Thanks for signing up!

Be on the lookout for a verification email in your inbox.

You'll start receiving the daily forecast at 6 AM.

×

10-Day Weather Forecast

Almanac

Astronomy

Jun. 23, 2017 Rise Set
Actual Time
Civil Twilight
Nautical Twilight
Astronomical Twilight
Moon
Length of Visible Light
Length of Day
Tomorrow will be .
, % of the Moon is Illuminated

Today's Extremes

State Highs State Lows

Community

WunderPhotos

Category 6

Welcome to Category 6. This is the collective home for Weather Underground's featured writeups by Dr. Jeff Masters (right), Bob Henson (left), Chris Burt, and other regular contributors.

Nearby

Air Quality

  Air Quality AQ Index Pollutant
Not available.

Snow Depth

Station Depth Elevation

Earthquake Activity

City Distance Mag. Time & Date
Minimum magnitude displayed is 2.5.

Coastal Water Temperatures

Place Temperature

Stations

Nearby Weather Stations

Station Location Temp. Windchill Dew Point Humidity Wind Precip. Elev Updated Type
                   

Watches & Warnings

There are currently no watches in effect.